Northern Highway — 3EVE6 — position and weather

sailwx.info

Track history (hours):
 
Tides and Currents Weather Stations Pressure Air Temp Water Temp Dewpoint Dewpoint Depression Visibility Wind Speed Wind Dir Waves Ship Positions

Northern Highway

Last reported at 2015-Mar-09 00:09 UTC. Time now 2015-Mar-29 13:46 UTC.
Position N 24°50' W 116°05'.
Warning: this ship's position is 20 days out of date.

Length 188 m; draft 7.9 m.

Type: Cargo ship. MMSI: 371608000.

Date/timePositionNaut miles runAvg speedWind from/ knotsBaromVisibWave heightAir tempDewpointWater temp
2015-Mar-09 00:09N 24°50' W 116°05'25916.6
2015-Mar-08 08:32N 27°22' W 119°58'2416.9
2015-Mar-08 07:09N 27°36' W 120°20'1016.8
2015-Mar-08 06:33N 27°41' W 120°29'1716.6
2015-Mar-08 05:33N 27°51' W 120°44'1716.8
2015-Mar-08 04:33N 28°00' W 120°60'1816.7
2015-Mar-08 03:28N 28°11' W 121°17'1516.9
2015-Mar-08 02:34N 28°20' W 121°31'1716.6
2015-Mar-08 01:34N 28°29' W 121°47'1716.6
2015-Mar-08 00:33N 28°38' W 122°03'1616.5
2015-Mar-07 23:34N 28°48' W 122°18'1716.9
2015-Mar-07 22:33N 28°57' W 122°34'1717.0
2015-Mar-07 21:33N 29°07' W 122°50'1717.0
2015-Mar-07 20:33N 29°16' W 123°06'11716.7
2015-Mar-07 13:34N 30°20' W 124°59'1916.8
2015-Mar-07 12:27N 30°31' W 125°17'1516.9
2015-Mar-07 11:34N 30°39' W 125°32'  
Track history (hours):
 
Tides and Currents Weather Stations Pressure Air Temp Water Temp Dewpoint Dewpoint Depression Visibility Wind Speed Wind Dir Waves Ship Positions

Northern Highway

Last reported at 2015-Mar-09 00:09 UTC. Time now 2015-Mar-29 13:46 UTC.
Position N 24°50' W 116°05'.
Warning: this ship's position is 20 days out of date.

Length 188 m; draft 7.9 m.

Type: Cargo ship. MMSI: 371608000.

Date/timePositionNaut miles runAvg speedWind from/ knotsBaromVisibWave heightAir tempDewpointWater temp
2015-Mar-09 00:09N 24°50' W 116°05'25916.6
2015-Mar-08 08:32N 27°22' W 119°58'2416.9
2015-Mar-08 07:09N 27°36' W 120°20'1016.8
2015-Mar-08 06:33N 27°41' W 120°29'1716.6
2015-Mar-08 05:33N 27°51' W 120°44'1716.8
2015-Mar-08 04:33N 28°00' W 120°60'1816.7
2015-Mar-08 03:28N 28°11' W 121°17'1516.9
2015-Mar-08 02:34N 28°20' W 121°31'1716.6
2015-Mar-08 01:34N 28°29' W 121°47'1716.6
2015-Mar-08 00:33N 28°38' W 122°03'1616.5
2015-Mar-07 23:34N 28°48' W 122°18'1716.9
2015-Mar-07 22:33N 28°57' W 122°34'1717.0
2015-Mar-07 21:33N 29°07' W 122°50'1717.0
2015-Mar-07 20:33N 29°16' W 123°06'11716.7
2015-Mar-07 13:34N 30°20' W 124°59'1916.8
2015-Mar-07 12:27N 30°31' W 125°17'1516.9
2015-Mar-07 11:34N 30°39' W 125°32'  

Dump ship's entire track history